createdAt,value
2023-03-19T00:00:37.751Z,3.03
2023-03-19T00:03:05.817Z,3.80
2023-03-19T00:05:33.445Z,3.42
2023-03-19T00:08:00.564Z,3.30
2023-03-19T00:10:27.545Z,3.05
2023-03-19T00:12:54.352Z,15.57
2023-03-19T00:15:21.233Z,6.57
2023-03-19T00:17:48.681Z,4.15
2023-03-19T00:20:15.893Z,3.50
2023-03-19T00:22:43.108Z,3.60
2023-03-19T00:25:10.311Z,3.40
2023-03-19T00:27:38.266Z,3.42
2023-03-19T00:30:07.019Z,3.53
2023-03-19T00:32:34.153Z,3.33
2023-03-19T00:35:01.465Z,3.58
2023-03-19T00:37:28.630Z,3.55
2023-03-19T00:39:56.163Z,3.70
2023-03-19T00:42:23.347Z,3.47
2023-03-19T00:44:50.359Z,4.50
2023-03-19T00:47:17.388Z,3.80
2023-03-19T00:49:44.469Z,4.18
2023-03-19T00:52:11.615Z,4.50
2023-03-19T00:54:38.491Z,4.03
2023-03-19T00:57:09.805Z,4.22
2023-03-19T00:59:36.951Z,4.57
2023-03-19T01:02:04.601Z,4.00
2023-03-19T01:04:31.615Z,3.90
2023-03-19T01:09:26.057Z,4.47
2023-03-19T01:11:53.162Z,4.45
2023-03-19T01:14:20.594Z,4.90
2023-03-19T01:16:47.579Z,5.35
2023-03-19T01:19:16.017Z,5.03
2023-03-19T01:21:46.313Z,4.68
2023-03-19T01:24:13.500Z,5.32
2023-03-19T01:26:40.651Z,5.35
2023-03-19T01:29:08.280Z,5.72
2023-03-19T01:31:35.929Z,5.93
2023-03-19T01:34:03.030Z,5.28
2023-03-19T01:36:29.895Z,6.00
2023-03-19T01:38:57.200Z,6.07
2023-03-19T01:41:24.929Z,6.45
2023-03-19T01:43:51.788Z,5.88
2023-03-19T01:46:34.982Z,5.70
2023-03-19T01:49:06.378Z,5.60
2023-03-19T01:51:41.983Z,5.38
2023-03-19T01:54:19.605Z,4.45
2023-03-19T01:56:51.345Z,4.93
2023-03-19T01:59:30.156Z,4.47
2023-03-19T02:02:01.468Z,4.40
2023-03-19T02:04:31.858Z,5.25
2023-03-19T02:07:01.283Z,4.63
2023-03-19T02:09:29.401Z,5.05
2023-03-19T02:11:57.651Z,4.72
2023-03-19T02:14:24.957Z,5.43
2023-03-19T02:16:52.971Z,5.15
2023-03-19T02:19:48.460Z,5.47
2023-03-19T02:22:22.854Z,5.85
2023-03-19T02:25:05.257Z,5.32
2023-03-19T02:27:32.421Z,5.82
2023-03-19T02:29:59.330Z,5.28
2023-03-19T02:32:27.167Z,4.53
2023-03-19T02:34:54.007Z,4.90
2023-03-19T02:37:28.210Z,5.28
2023-03-19T02:40:00.905Z,4.93
2023-03-19T02:42:29.260Z,5.18
2023-03-19T02:44:56.563Z,5.10
2023-03-19T02:47:25.469Z,5.63
2023-03-19T02:49:52.620Z,5.00
2023-03-19T02:52:19.588Z,5.13
2023-03-19T02:54:46.816Z,5.55
2023-03-19T02:57:13.692Z,5.72
2023-03-19T02:59:40.552Z,6.43
2023-03-19T03:02:08.278Z,6.60
2023-03-19T03:04:37.063Z,7.13
2023-03-19T03:07:05.120Z,8.40
2023-03-19T03:09:32.754Z,8.25
2023-03-19T03:11:59.658Z,8.32
2023-03-19T03:14:26.565Z,8.27
2023-03-19T03:16:53.443Z,7.22
2023-03-19T03:19:21.538Z,7.53
2023-03-19T03:21:48.566Z,7.20
2023-03-19T03:24:15.721Z,6.70
2023-03-19T03:26:42.764Z,6.88
2023-03-19T03:29:09.822Z,6.45
2023-03-19T03:31:39.532Z,7.00
2023-03-19T03:34:06.462Z,7.00
2023-03-19T03:36:33.940Z,6.53
2023-03-19T03:39:00.864Z,6.65
2023-03-19T03:41:27.673Z,5.88
2023-03-19T03:43:54.643Z,5.65
2023-03-19T03:46:21.685Z,5.72
2023-03-19T03:48:49.808Z,6.07
2023-03-19T03:51:17.670Z,6.03
2023-03-19T03:53:44.724Z,5.63
2023-03-19T03:56:11.947Z,5.22
2023-03-19T03:58:39.350Z,4.70
2023-03-19T04:01:07.882Z,4.82
2023-03-19T04:03:34.923Z,4.70
2023-03-19T04:06:02.188Z,4.55
2023-03-19T04:08:29.975Z,5.32
2023-03-19T04:10:58.209Z,4.57
2023-03-19T04:13:25.455Z,5.50
2023-03-19T04:15:54.795Z,3.97
2023-03-19T04:18:22.151Z,4.43
2023-03-19T04:20:49.027Z,5.07
2023-03-19T04:23:16.254Z,4.60
2023-03-19T04:25:43.324Z,5.43
2023-03-19T04:28:10.524Z,4.35
2023-03-19T04:30:38.280Z,4.43
2023-03-19T04:33:05.501Z,4.88
2023-03-19T04:35:32.434Z,4.72
2023-03-19T04:37:59.368Z,4.70
2023-03-19T04:40:26.378Z,3.83
2023-03-19T04:42:53.666Z,4.68
2023-03-19T04:45:21.829Z,4.05
2023-03-19T04:47:48.697Z,4.07
2023-03-19T04:50:16.076Z,4.30
2023-03-19T04:52:43.123Z,3.60
2023-03-19T04:55:10.389Z,4.63
2023-03-19T04:57:37.420Z,4.38
2023-03-19T05:00:04.644Z,4.60
2023-03-19T05:02:31.555Z,3.80
2023-03-19T05:04:58.481Z,4.85
2023-03-19T05:07:26.454Z,5.13
2023-03-19T05:09:53.333Z,4.75
2023-03-19T05:12:20.267Z,4.70
2023-03-19T05:14:47.116Z,4.70
2023-03-19T05:17:15.797Z,5.10
2023-03-19T05:19:43.535Z,5.53
2023-03-19T05:22:10.653Z,4.95
2023-03-19T05:24:37.541Z,5.07
2023-03-19T05:27:04.518Z,5.50
2023-03-19T05:29:31.484Z,5.43
2023-03-19T05:31:58.325Z,5.35
2023-03-19T05:34:25.616Z,5.40
2023-03-19T05:36:52.484Z,5.50
2023-03-19T05:39:19.698Z,4.93
2023-03-19T05:41:46.770Z,5.50
2023-03-19T05:44:14.510Z,5.45
2023-03-19T05:46:41.790Z,5.30
2023-03-19T05:49:08.721Z,5.00
2023-03-19T05:51:36.783Z,5.57
2023-03-19T05:54:03.978Z,5.30
2023-03-19T05:56:31.019Z,5.22
2023-03-19T05:58:58.057Z,5.10
2023-03-19T06:01:25.518Z,5.22
2023-03-19T06:03:55.157Z,5.10
2023-03-19T06:06:22.874Z,5.20
2023-03-19T06:08:49.667Z,5.03
2023-03-19T06:11:16.682Z,5.18
2023-03-19T06:13:43.648Z,5.15
2023-03-19T06:16:10.723Z,5.00
2023-03-19T06:18:38.344Z,5.15
2023-03-19T06:21:05.945Z,5.15
2023-03-19T06:23:32.779Z,5.20
2023-03-19T06:25:59.945Z,5.88
2023-03-19T06:28:27.705Z,5.43
2023-03-19T06:30:56.088Z,5.15
2023-03-19T06:33:22.981Z,5.55
2023-03-19T06:35:49.798Z,5.57
2023-03-19T06:38:16.798Z,5.68
2023-03-19T06:40:43.669Z,5.65
2023-03-19T06:43:10.706Z,5.50
2023-03-19T06:45:37.654Z,5.40
2023-03-19T06:48:04.715Z,5.10
2023-03-19T06:50:32.915Z,5.47
2023-03-19T06:53:00.583Z,5.38
2023-03-19T06:55:33.214Z,5.50
2023-03-19T06:58:00.452Z,6.93
2023-03-19T07:00:27.998Z,6.07
2023-03-19T07:02:55.864Z,7.10
2023-03-19T07:05:26.314Z,7.55
2023-03-19T07:07:55.578Z,8.23
2023-03-19T07:10:23.042Z,7.20
2023-03-19T07:12:54.336Z,8.05
2023-03-19T07:15:24.158Z,8.38
2023-03-19T07:17:51.057Z,8.82
2023-03-19T07:20:18.111Z,9.20
2023-03-19T07:22:44.888Z,9.65
2023-03-19T07:25:11.866Z,9.13
2023-03-19T07:27:40.275Z,10.25
2023-03-19T07:30:07.809Z,12.63
2023-03-19T07:32:34.830Z,13.93
2023-03-19T07:35:02.708Z,15.57
2023-03-19T07:37:33.993Z,14.18
2023-03-19T07:40:05.912Z,14.93
2023-03-19T07:42:33.396Z,13.77
2023-03-19T07:45:12.431Z,12.38
2023-03-19T07:47:40.232Z,11.60
2023-03-19T07:50:18.492Z,11.95
2023-03-19T07:52:51.392Z,13.25
2023-03-19T07:55:18.547Z,11.57
2023-03-19T07:57:45.380Z,12.77
2023-03-19T08:00:13.083Z,12.48
2023-03-19T08:02:40.580Z,13.68
2023-03-19T08:05:08.673Z,11.18
2023-03-19T08:07:36.528Z,10.07
2023-03-19T08:10:07.393Z,11.65
2023-03-19T08:12:39.722Z,11.10
2023-03-19T08:15:08.282Z,11.07
2023-03-19T08:17:38.209Z,11.90
2023-03-19T08:20:11.383Z,11.82
2023-03-19T08:22:39.299Z,11.80
2023-03-19T08:25:07.231Z,12.57
2023-03-19T08:27:35.806Z,12.57
2023-03-19T08:30:04.919Z,12.85
2023-03-19T08:32:32.097Z,12.20
2023-03-19T08:34:59.083Z,13.27
2023-03-19T08:37:26.066Z,12.65
2023-03-19T08:39:53.386Z,13.75
2023-03-19T08:42:22.153Z,14.35
2023-03-19T08:44:50.262Z,13.82
2023-03-19T08:47:17.302Z,13.20
2023-03-19T08:49:44.162Z,13.68
2023-03-19T08:52:11.780Z,13.98
2023-03-19T08:54:38.962Z,13.32
2023-03-19T08:57:06.233Z,15.20
2023-03-19T08:59:34.308Z,15.35
2023-03-19T09:02:01.720Z,15.02
2023-03-19T09:04:29.426Z,14.85
2023-03-19T09:06:56.812Z,15.07
2023-03-19T09:09:27.819Z,15.35
2023-03-19T09:11:54.693Z,14.68
2023-03-19T09:14:23.193Z,14.98
2023-03-19T09:16:50.309Z,15.30
2023-03-19T09:19:17.454Z,13.93
2023-03-19T09:21:44.999Z,16.20
2023-03-19T09:24:12.286Z,14.82
2023-03-19T09:26:39.212Z,14.50
2023-03-19T09:29:06.270Z,14.05
2023-03-19T09:31:33.605Z,9.60
2023-03-19T09:34:00.632Z,7.95
2023-03-19T09:36:27.509Z,6.10
2023-03-19T09:38:55.018Z,7.68
2023-03-19T09:41:35.720Z,8.80
2023-03-19T09:44:11.220Z,11.90
2023-03-19T09:47:17.104Z,12.65
2023-03-19T09:49:48.467Z,10.98
2023-03-19T09:52:30.534Z,10.02
2023-03-19T09:55:04.612Z,10.13
2023-03-19T09:57:40.584Z,10.13
2023-03-19T10:00:22.976Z,9.07
2023-03-19T10:02:57.265Z,7.00
2023-03-19T10:05:37.345Z,4.93
2023-03-19T10:08:17.202Z,4.18
2023-03-19T10:11:16.490Z,4.72
2023-03-19T10:14:15.214Z,3.70
2023-03-19T10:16:46.782Z,3.65
2023-03-19T10:19:24.778Z,3.72
2023-03-19T10:21:58.934Z,3.03
2023-03-19T10:24:33.417Z,2.60
2023-03-19T10:27:13.337Z,2.50
2023-03-19T10:29:41.509Z,2.53
2023-03-19T10:32:39.370Z,2.85
2023-03-19T10:35:18.092Z,3.15
2023-03-19T10:37:45.080Z,3.10
2023-03-19T10:40:44.528Z,3.10
2023-03-19T10:43:22.795Z,3.10
2023-03-19T10:45:49.792Z,4.05
2023-03-19T10:48:18.497Z,8.02
2023-03-19T10:51:01.280Z,7.55
2023-03-19T10:53:37.146Z,6.97
2023-03-19T10:56:20.283Z,14.38
2023-03-19T10:59:05.842Z,15.55
2023-03-19T11:01:36.492Z,16.95
2023-03-19T11:04:19.483Z,15.68
2023-03-19T11:07:14.185Z,10.63
2023-03-19T11:09:45.815Z,4.53
2023-03-19T11:12:21.853Z,3.22
2023-03-19T11:14:52.420Z,2.92
2023-03-19T11:17:38.998Z,3.03
2023-03-19T11:20:28.468Z,2.67
2023-03-19T11:22:59.522Z,2.30
2023-03-19T11:25:37.710Z,2.40
2023-03-19T11:28:34.475Z,3.15
2023-03-19T11:31:34.291Z,2.95
2023-03-19T11:34:01.142Z,2.58
2023-03-19T11:36:59.480Z,2.95
2023-03-19T11:39:42.456Z,3.00
2023-03-19T11:42:38.264Z,2.80
2023-03-19T11:45:23.676Z,2.90
2023-03-19T11:48:31.737Z,3.10
2023-03-19T11:51:11.384Z,2.58
2023-03-19T11:53:41.744Z,2.63
2023-03-19T11:56:15.445Z,3.15
2023-03-19T11:58:48.425Z,2.55
2023-03-19T12:01:49.639Z,2.60
2023-03-19T12:04:59.503Z,2.45
2023-03-19T12:07:36.065Z,2.78
2023-03-19T12:10:52.736Z,2.95
2023-03-19T12:13:37.883Z,3.30
2023-03-19T12:16:17.050Z,3.72
2023-03-19T12:18:47.333Z,3.20
2023-03-19T12:21:44.883Z,3.15
2023-03-19T12:24:50.820Z,3.95
2023-03-19T12:27:43.046Z,4.10
2023-03-19T12:30:50.280Z,3.47
2023-03-19T12:33:23.053Z,4.53
2023-03-19T12:35:55.488Z,5.03
2023-03-19T12:38:41.658Z,4.93
2023-03-19T12:41:11.770Z,3.83
2023-03-19T12:43:57.258Z,3.80
2023-03-19T12:46:30.207Z,3.80
2023-03-19T12:49:15.531Z,4.28
2023-03-19T12:51:49.539Z,3.92
2023-03-19T12:54:23.974Z,3.65
2023-03-19T12:57:07.225Z,3.92
2023-03-19T12:59:40.365Z,4.40
2023-03-19T13:03:07.021Z,3.80
2023-03-19T13:06:05.972Z,3.75
2023-03-19T13:08:35.426Z,3.97
2023-03-19T13:11:06.743Z,4.18
2023-03-19T13:13:56.237Z,3.55
2023-03-19T13:16:44.376Z,4.30
2023-03-19T13:19:18.323Z,3.67
2023-03-19T13:21:47.438Z,3.53
2023-03-19T13:24:17.332Z,3.80
2023-03-19T13:26:45.423Z,3.33
2023-03-19T13:29:22.764Z,3.83
2023-03-19T13:31:50.906Z,3.85
2023-03-19T13:34:17.986Z,3.95
2023-03-19T13:36:51.809Z,3.50
2023-03-19T13:39:27.402Z,3.85
2023-03-19T13:42:14.465Z,4.13
2023-03-19T13:44:49.575Z,3.53
2023-03-19T13:47:28.954Z,3.92
2023-03-19T13:50:22.538Z,3.90
2023-03-19T13:52:52.486Z,3.92
2023-03-19T13:55:30.865Z,3.63
2023-03-19T13:58:12.718Z,4.03
2023-03-19T14:00:43.047Z,3.65
2023-03-19T14:03:25.602Z,3.53
2023-03-19T14:05:56.726Z,3.28
2023-03-19T14:08:47.348Z,2.80
2023-03-19T14:11:30.710Z,3.00
2023-03-19T14:14:07.788Z,2.85
2023-03-19T14:16:39.328Z,3.35
2023-03-19T14:19:12.247Z,4.07
2023-03-19T14:22:02.592Z,4.93
2023-03-19T14:27:27.373Z,5.60
2023-03-19T14:29:55.413Z,10.18
2023-03-19T14:32:32.132Z,10.82
2023-03-19T14:34:59.882Z,10.77
2023-03-19T14:37:36.408Z,11.05
2023-03-19T14:40:22.242Z,10.43
2023-03-19T14:43:08.158Z,10.23
2023-03-19T14:46:02.757Z,9.30
2023-03-19T14:49:10.138Z,10.32
2023-03-19T14:51:40.635Z,7.80
2023-03-19T14:54:20.306Z,8.43
2023-03-19T14:56:48.774Z,7.93
2023-03-19T14:59:16.117Z,6.55
2023-03-19T15:01:51.237Z,5.05
2023-03-19T15:04:22.844Z,4.13
2023-03-19T15:07:01.474Z,4.05
2023-03-19T15:09:34.091Z,3.22
2023-03-19T15:12:13.043Z,2.78
2023-03-19T15:15:04.745Z,2.47
2023-03-19T15:17:32.504Z,2.92
2023-03-19T15:20:03.875Z,2.97
2023-03-19T15:22:35.343Z,3.13
2023-03-19T15:25:14.848Z,5.25
2023-03-19T15:27:42.758Z,6.97
2023-03-19T15:30:28.849Z,5.40
2023-03-19T15:33:10.512Z,4.20
2023-03-19T15:35:41.736Z,5.55
2023-03-19T15:38:12.398Z,4.53
2023-03-19T15:40:41.407Z,4.53
2023-03-19T15:43:10.366Z,8.18
2023-03-19T15:45:38.272Z,6.93
2023-03-19T15:48:16.600Z,10.30
2023-03-19T15:50:46.387Z,16.58
2023-03-19T15:53:18.437Z,11.77
2023-03-19T15:55:48.071Z,7.53
2023-03-19T15:58:24.697Z,6.75
2023-03-19T16:00:54.104Z,5.55
2023-03-19T16:03:44.145Z,3.97
2023-03-19T16:06:41.956Z,3.60
2023-03-19T16:09:18.229Z,2.88
2023-03-19T16:11:49.163Z,3.50
2023-03-19T16:14:23.187Z,3.88
2023-03-19T16:16:50.881Z,2.88
2023-03-19T16:19:37.870Z,2.95
2023-03-19T16:22:15.007Z,2.03
2023-03-19T16:24:45.080Z,2.40
2023-03-19T16:27:38.828Z,2.63
2023-03-19T16:30:25.504Z,2.78
2023-03-19T16:33:01.131Z,3.42
2023-03-19T16:35:30.447Z,3.08
2023-03-19T16:38:25.117Z,3.03
2023-03-19T16:41:23.258Z,3.28
2023-03-19T16:43:54.455Z,3.17
2023-03-19T16:46:21.669Z,3.15
2023-03-19T16:48:48.728Z,3.00
2023-03-19T16:51:21.115Z,4.35
2023-03-19T16:53:49.279Z,3.90
2023-03-19T16:56:16.829Z,5.15
2023-03-19T16:58:44.997Z,5.72
2023-03-19T17:01:14.500Z,6.05
2023-03-19T17:03:42.613Z,4.85
2023-03-19T17:06:12.091Z,5.95
2023-03-19T17:08:39.578Z,5.30
2023-03-19T17:11:09.453Z,4.53
2023-03-19T17:13:37.590Z,4.35
2023-03-19T17:16:07.148Z,3.80
2023-03-19T17:18:36.756Z,3.83
2023-03-19T17:21:15.255Z,4.97
2023-03-19T17:23:42.707Z,6.15
2023-03-19T17:26:17.390Z,5.43
2023-03-19T17:28:45.275Z,3.90
2023-03-19T17:31:27.467Z,4.55
2023-03-19T17:34:06.267Z,3.83
2023-03-19T17:36:33.806Z,4.72
2023-03-19T17:39:00.702Z,4.90
2023-03-19T17:41:33.033Z,4.40
2023-03-19T17:44:06.263Z,7.43
2023-03-19T17:46:41.528Z,10.20
2023-03-19T17:49:33.875Z,9.27
2023-03-19T17:52:01.687Z,9.77
2023-03-19T17:54:28.780Z,9.25
2023-03-19T17:56:56.225Z,9.63
2023-03-19T17:59:23.909Z,12.55
2023-03-19T18:01:52.301Z,12.75
2023-03-19T18:04:21.687Z,11.98
2023-03-19T18:06:58.834Z,12.57
2023-03-19T18:09:32.874Z,4.75
2023-03-19T18:11:59.884Z,4.93
2023-03-19T18:14:26.874Z,4.45
2023-03-19T18:16:53.870Z,6.40
2023-03-19T18:19:30.822Z,4.72
2023-03-19T18:21:58.087Z,6.63
2023-03-19T18:24:25.371Z,7.20
2023-03-19T18:26:52.252Z,5.80
2023-03-19T18:29:19.241Z,6.13
2023-03-19T18:31:49.210Z,6.20
2023-03-19T18:34:17.194Z,4.82
2023-03-19T18:36:44.380Z,5.15
2023-03-19T18:39:14.293Z,5.20
2023-03-19T18:41:41.874Z,4.88
2023-03-19T18:44:09.695Z,4.88
2023-03-19T18:46:38.526Z,5.70
2023-03-19T18:49:25.256Z,5.05
2023-03-19T18:52:08.674Z,5.25
2023-03-19T18:54:35.834Z,5.78
2023-03-19T18:57:03.058Z,5.72
2023-03-19T18:59:33.234Z,5.90
2023-03-19T19:02:34.003Z,6.45
2023-03-19T19:05:01.803Z,5.53
2023-03-19T19:07:28.882Z,5.63
2023-03-19T19:09:55.899Z,6.60
2023-03-19T19:12:23.330Z,7.60
2023-03-19T19:14:50.363Z,7.20
2023-03-19T19:17:21.244Z,6.22
2023-03-19T19:19:48.231Z,7.07
2023-03-19T19:22:17.729Z,7.05
2023-03-19T19:24:45.447Z,7.47
2023-03-19T19:27:22.556Z,7.78
2023-03-19T19:29:50.327Z,8.25
2023-03-19T19:32:26.324Z,7.70
2023-03-19T19:34:53.923Z,8.05
2023-03-19T19:37:23.278Z,8.85
2023-03-19T19:39:51.292Z,8.70
2023-03-19T19:42:21.173Z,8.63
2023-03-19T19:44:55.250Z,8.13
2023-03-19T19:47:22.430Z,8.50
2023-03-19T19:49:49.862Z,8.45
2023-03-19T19:52:21.528Z,8.60
2023-03-19T19:54:49.007Z,8.80
2023-03-19T19:57:24.909Z,8.63
2023-03-19T19:59:53.170Z,8.35
2023-03-19T20:02:33.265Z,8.98
2023-03-19T20:05:00.435Z,9.57
2023-03-19T20:07:27.872Z,8.70
2023-03-19T20:09:55.192Z,8.43
2023-03-19T20:12:26.829Z,7.93
2023-03-19T20:14:53.998Z,7.80
2023-03-19T20:17:21.537Z,8.27
2023-03-19T20:19:48.897Z,8.60
2023-03-19T20:22:16.327Z,8.45
2023-03-19T20:24:43.319Z,8.60
2023-03-19T20:27:20.317Z,8.07
2023-03-19T20:30:03.153Z,7.93
2023-03-19T20:32:37.447Z,7.35
2023-03-19T20:35:10.806Z,8.52
2023-03-19T20:37:37.921Z,8.68
2023-03-19T20:40:05.545Z,8.50
2023-03-19T20:42:34.470Z,8.68
2023-03-19T20:45:02.406Z,8.55
2023-03-19T20:47:32.935Z,8.68
2023-03-19T20:49:59.994Z,8.05
2023-03-19T20:52:26.873Z,8.77
2023-03-19T20:54:54.134Z,9.35
2023-03-19T20:57:31.559Z,10.27
2023-03-19T21:00:11.551Z,10.77
2023-03-19T21:02:38.435Z,9.43
2023-03-19T21:05:07.810Z,10.48
2023-03-19T21:07:34.892Z,9.98
2023-03-19T21:10:06.563Z,9.68
2023-03-19T21:12:36.161Z,11.35
2023-03-19T21:15:03.694Z,11.43
2023-03-19T21:17:30.796Z,10.90
2023-03-19T21:19:57.964Z,12.80
2023-03-19T21:22:28.671Z,11.82
2023-03-19T21:25:04.344Z,11.95
2023-03-19T21:27:34.647Z,12.43
2023-03-19T21:30:03.318Z,12.57
2023-03-19T21:32:30.388Z,11.70
2023-03-19T21:34:57.534Z,12.95
2023-03-19T21:37:24.690Z,12.93
2023-03-19T21:39:52.080Z,12.18
2023-03-19T21:42:22.726Z,13.80
2023-03-19T21:44:56.905Z,15.38
2023-03-19T21:47:25.841Z,16.17
2023-03-19T21:49:52.935Z,16.65
2023-03-19T21:52:22.298Z,17.20
2023-03-19T21:54:49.959Z,17.90
2023-03-19T21:57:17.518Z,15.68
2023-03-19T21:59:45.510Z,15.60
2023-03-19T22:02:38.292Z,15.05
2023-03-19T22:05:27.064Z,15.40
2023-03-19T22:07:54.875Z,15.25
2023-03-19T22:10:26.975Z,16.48
2023-03-19T22:12:54.505Z,16.88
2023-03-19T22:15:30.794Z,17.58
2023-03-19T22:17:58.868Z,17.50
2023-03-19T22:20:26.605Z,19.20
2023-03-19T22:22:54.027Z,18.17
2023-03-19T22:25:22.363Z,16.45
2023-03-19T22:27:51.494Z,17.50
2023-03-19T22:30:37.079Z,17.02
2023-03-19T22:33:16.585Z,16.85
2023-03-19T22:35:44.761Z,17.00
2023-03-19T22:38:12.683Z,17.17
2023-03-19T22:40:45.843Z,15.75
2023-03-19T22:43:38.776Z,16.27
2023-03-19T22:46:12.953Z,15.75
2023-03-19T22:48:40.132Z,15.15
2023-03-19T22:51:08.158Z,14.75
2023-03-19T22:53:37.340Z,13.07
2023-03-19T22:56:04.749Z,13.18
2023-03-19T22:58:31.675Z,11.18
2023-03-19T23:00:58.647Z,10.65
2023-03-19T23:03:31.013Z,10.07
2023-03-19T23:06:03.490Z,9.30
2023-03-19T23:08:30.382Z,9.60
2023-03-19T23:10:57.965Z,10.05
2023-03-19T23:13:25.067Z,9.25
2023-03-19T23:15:57.173Z,9.23
2023-03-19T23:18:36.581Z,8.85
2023-03-19T23:21:04.450Z,8.82
2023-03-19T23:23:31.841Z,9.60
2023-03-19T23:25:58.790Z,10.13
2023-03-19T23:28:33.971Z,10.38
2023-03-19T23:31:05.564Z,11.10
2023-03-19T23:33:32.818Z,12.77
2023-03-19T23:36:00.552Z,12.80
2023-03-19T23:38:28.362Z,13.93
2023-03-19T23:40:55.343Z,14.95
2023-03-19T23:43:28.020Z,13.93
2023-03-19T23:45:56.258Z,13.80
2023-03-19T23:48:25.950Z,13.18
2023-03-19T23:50:53.574Z,13.77
2023-03-19T23:53:23.479Z,12.70
2023-03-19T23:55:53.178Z,13.05
2023-03-19T23:58:20.532Z,12.18
